BAW718 EGLL-LTFM
Flight info
| Callsign | BAW718 |
|---|---|
| Flight time | N/A |
| Altitude | 35000 |
| Route | DET1J DET L6 DVR UL9 KONAN DCT KOK UL607 FERDI DCT MATUG DCT AMASI DCT BOMBI DCT TENLO DCT DEXIT DCT BEGLA DCT TEGRI DCT NEKUL DCT LAMIT DCT RASUB DCT BULEN DCT BUVAK DCT RIXEN RIXEN1A |
| Aircraft | A320/M-SDE3FGIJ1KRWXY/SB1 |
Departure
| Time | 2026-05-07 12:05 |
|---|---|
| Airport | London Heathrow Airport (EGLL) |
Arrival
| Time | N/A |
|---|---|
| Airport | İstanbul Airport (LTFM) |
| Time | Latitude | Longitude | Altitude | Speed | Heading |
|---|---|---|---|---|---|
| 2026-05-07 11:25 | 51.46930 | -0.48787 | 90 ft | 0 kts | 359° |
| 2026-05-07 11:56 | 51.46926 | -0.48787 | 86 ft | 3 kts | 360° |
| 2026-05-07 11:56 | 51.46906 | -0.48787 | 90 ft | 3 kts | 360° |
| 2026-05-07 11:56 | 51.46889 | -0.48786 | 89 ft | 3 kts | 12° |
| 2026-05-07 11:57 | 51.46877 | -0.48794 | 87 ft | 3 kts | 78° |
| 2026-05-07 11:57 | 51.46876 | -0.48798 | 87 ft | 3 kts | 90° |
| 2026-05-07 11:57 | 51.46876 | -0.48777 | 87 ft | 0 kts | 90° |
| 2026-05-07 12:01 | 51.46876 | -0.48776 | 86 ft | 1 kts | 90° |
| 2026-05-07 12:01 | 51.46876 | -0.48732 | 86 ft | 7 kts | 90° |
| 2026-05-07 12:01 | 51.46877 | -0.48639 | 86 ft | 9 kts | 90° |
| 2026-05-07 12:02 | 51.46877 | -0.48533 | 86 ft | 9 kts | 89° |
| 2026-05-07 12:02 | 51.46851 | -0.48475 | 87 ft | 5 kts | 156° |
| 2026-05-07 12:02 | 51.46842 | -0.48472 | 87 ft | 0 kts | 168° |
| 2026-05-07 12:03 | 51.46827 | -0.48470 | 87 ft | 5 kts | 177° |
| 2026-05-07 12:03 | 51.46773 | -0.48469 | 86 ft | 9 kts | 180° |
| 2026-05-07 12:03 | 51.46702 | -0.48469 | 86 ft | 11 kts | 179° |
| 2026-05-07 12:03 | 51.46620 | -0.48468 | 86 ft | 12 kts | 180° |
| 2026-05-07 12:04 | 51.46528 | -0.48467 | 86 ft | 14 kts | 178° |
| 2026-05-07 12:04 | 51.46479 | -0.48348 | 87 ft | 18 kts | 90° |
| 2026-05-07 12:04 | 51.46480 | -0.47840 | 87 ft | 80 kts | 90° |
| 2026-05-07 12:04 | 51.46484 | -0.46618 | 90 ft | 136 kts | 90° |
| 2026-05-07 12:05 | 51.46491 | -0.44882 | 145 ft | 173 kts | 92° |
| 2026-05-07 12:05 | 51.46508 | -0.42972 | 843 ft | 170 kts | 89° |
| 2026-05-07 12:05 | 51.46312 | -0.41114 | 1394 ft | 177 kts | 121° |
| 2026-05-07 12:05 | 51.45522 | -0.39459 | 1627 ft | 196 kts | 127° |
| 2026-05-07 12:06 | 51.44727 | -0.37555 | 1852 ft | 216 kts | 122° |
| 2026-05-07 12:06 | 51.43913 | -0.35373 | 2102 ft | 240 kts | 118° |
| 2026-05-07 12:06 | 51.43389 | -0.32723 | 2538 ft | 257 kts | 103° |
| 2026-05-07 12:06 | 51.42996 | -0.29899 | 3305 ft | 262 kts | 103° |
| 2026-05-07 12:07 | 51.42593 | -0.27062 | 4107 ft | 265 kts | 103° |
| 2026-05-07 12:07 | 51.42188 | -0.24139 | 4874 ft | 270 kts | 103° |
| 2026-05-07 12:07 | 51.41784 | -0.21175 | 5619 ft | 274 kts | 103° |
| 2026-05-07 12:07 | 51.41378 | -0.18187 | 6416 ft | 276 kts | 103° |
| 2026-05-07 12:08 | 51.40968 | -0.15166 | 7168 ft | 278 kts | 103° |
| 2026-05-07 12:08 | 51.40559 | -0.12170 | 7913 ft | 280 kts | 103° |
| 2026-05-07 12:08 | 51.40132 | -0.09070 | 8665 ft | 282 kts | 103° |
| 2026-05-07 12:08 | 51.39706 | -0.05991 | 9413 ft | 284 kts | 103° |
| 2026-05-07 12:09 | 51.39282 | -0.02933 | 10122 ft | 286 kts | 103° |
| 2026-05-07 12:09 | 51.38847 | 0.00196 | 10373 ft | 306 kts | 103° |
| 2026-05-07 12:09 | 51.38365 | 0.03633 | 10494 ft | 327 kts | 103° |
| 2026-05-07 12:09 | 51.37852 | 0.07280 | 10696 ft | 344 kts | 103° |
| 2026-05-07 12:10 | 51.37323 | 0.11052 | 11190 ft | 350 kts | 103° |
| 2026-05-07 12:10 | 51.36790 | 0.14869 | 11752 ft | 353 kts | 103° |
| 2026-05-07 12:10 | 51.36253 | 0.18716 | 12327 ft | 356 kts | 103° |
| 2026-05-07 12:10 | 51.35708 | 0.22599 | 12901 ft | 359 kts | 103° |
| 2026-05-07 12:11 | 51.35157 | 0.26510 | 13477 ft | 362 kts | 103° |
| 2026-05-07 12:11 | 51.34607 | 0.30403 | 14027 ft | 365 kts | 103° |
| 2026-05-07 12:11 | 51.34044 | 0.34383 | 14525 ft | 368 kts | 104° |
| 2026-05-07 12:11 | 51.33471 | 0.38394 | 15016 ft | 372 kts | 104° |
| 2026-05-07 12:12 | 51.32891 | 0.42435 | 15474 ft | 375 kts | 104° |
| 2026-05-07 12:12 | 51.32305 | 0.46514 | 15774 ft | 378 kts | 104° |
| 2026-05-07 12:12 | 51.31713 | 0.50626 | 16243 ft | 381 kts | 104° |
| 2026-05-07 12:12 | 51.31116 | 0.54773 | 16720 ft | 385 kts | 104° |
| 2026-05-07 12:13 | 51.30514 | 0.58950 | 17203 ft | 388 kts | 104° |
| 2026-05-07 12:13 | 51.29861 | 0.63147 | 17696 ft | 390 kts | 106° |
| 2026-05-07 12:13 | 51.29127 | 0.67333 | 18188 ft | 393 kts | 107° |
| 2026-05-07 12:13 | 51.28351 | 0.71485 | 18615 ft | 396 kts | 108° |
| 2026-05-07 12:14 | 51.27542 | 0.75708 | 19049 ft | 399 kts | 108° |
| 2026-05-07 12:14 | 51.26728 | 0.79963 | 19502 ft | 402 kts | 108° |
| 2026-05-07 12:14 | 51.25918 | 0.84239 | 19955 ft | 404 kts | 108° |
| 2026-05-07 12:14 | 51.25109 | 0.88557 | 20406 ft | 407 kts | 108° |
| 2026-05-07 12:15 | 51.24303 | 0.92899 | 20834 ft | 410 kts | 108° |
| 2026-05-07 12:15 | 51.23494 | 0.97277 | 21252 ft | 412 kts | 107° |
| 2026-05-07 12:15 | 51.22683 | 1.01674 | 21641 ft | 414 kts | 107° |
| 2026-05-07 12:15 | 51.21867 | 1.06093 | 22031 ft | 417 kts | 108° |
| 2026-05-07 12:16 | 51.21039 | 1.10538 | 22405 ft | 419 kts | 108° |
| 2026-05-07 12:16 | 51.20214 | 1.14929 | 22776 ft | 422 kts | 108° |
| 2026-05-07 12:16 | 51.19368 | 1.19432 | 23145 ft | 424 kts | 108° |
| 2026-05-07 12:16 | 51.18517 | 1.23947 | 23511 ft | 426 kts | 108° |
| 2026-05-07 12:17 | 51.17659 | 1.28484 | 23837 ft | 429 kts | 108° |
| 2026-05-07 12:17 | 51.16798 | 1.33044 | 24137 ft | 431 kts | 107° |
| 2026-05-07 12:17 | 51.16193 | 1.37739 | 24442 ft | 434 kts | 97° |
| 2026-05-07 12:17 | 51.15951 | 1.42547 | 24734 ft | 436 kts | 95° |
| 2026-05-07 12:18 | 51.15729 | 1.47372 | 25026 ft | 438 kts | 95° |
| 2026-05-07 12:18 | 51.15497 | 1.52226 | 25316 ft | 440 kts | 95° |
| 2026-05-07 12:18 | 51.15259 | 1.57093 | 25603 ft | 442 kts | 95° |
| 2026-05-07 12:18 | 51.15020 | 1.61917 | 25898 ft | 444 kts | 95° |
| 2026-05-07 12:19 | 51.14772 | 1.66893 | 26190 ft | 446 kts | 95° |
| 2026-05-07 12:19 | 51.14525 | 1.71761 | 26487 ft | 447 kts | 95° |
| 2026-05-07 12:19 | 51.14274 | 1.76705 | 26786 ft | 449 kts | 95° |
| 2026-05-07 12:19 | 51.14021 | 1.81659 | 27154 ft | 449 kts | 95° |
| 2026-05-07 12:20 | 51.13770 | 1.86610 | 27583 ft | 448 kts | 95° |
| 2026-05-07 12:20 | 51.13520 | 1.91548 | 27996 ft | 447 kts | 95° |
| 2026-05-07 12:20 | 51.13267 | 1.96477 | 28402 ft | 447 kts | 96° |
| 2026-05-07 12:20 | 51.13009 | 2.01402 | 28810 ft | 446 kts | 96° |
| 2026-05-07 12:21 | 51.12749 | 2.06321 | 29219 ft | 445 kts | 96° |
| 2026-05-07 12:21 | 51.12488 | 2.11225 | 29630 ft | 445 kts | 96° |
| 2026-05-07 12:21 | 51.12225 | 2.16127 | 30043 ft | 444 kts | 96° |
| 2026-05-07 12:21 | 51.11959 | 2.21016 | 30406 ft | 443 kts | 96° |
| 2026-05-07 12:22 | 51.11690 | 2.25905 | 30760 ft | 443 kts | 96° |
| 2026-05-07 12:22 | 51.11422 | 2.30778 | 31109 ft | 442 kts | 96° |
| 2026-05-07 12:22 | 51.11153 | 2.35650 | 31464 ft | 442 kts | 96° |
| 2026-05-07 12:22 | 51.10884 | 2.40517 | 31804 ft | 441 kts | 96° |
| 2026-05-07 12:23 | 51.10612 | 2.45368 | 32155 ft | 441 kts | 96° |
| 2026-05-07 12:23 | 51.10337 | 2.50222 | 32514 ft | 440 kts | 96° |
| 2026-05-07 12:23 | 51.10061 | 2.54998 | 32866 ft | 439 kts | 96° |
| 2026-05-07 12:23 | 51.09780 | 2.59831 | 33226 ft | 439 kts | 96° |
| 2026-05-07 12:24 | 51.09441 | 2.64650 | 33563 ft | 437 kts | 101° |
| 2026-05-07 12:24 | 51.08729 | 2.69337 | 33890 ft | 436 kts | 107° |
| 2026-05-07 12:24 | 51.07892 | 2.73961 | 34182 ft | 435 kts | 107° |
| 2026-05-07 12:24 | 51.07052 | 2.78588 | 34437 ft | 435 kts | 107° |
| 2026-05-07 12:25 | 51.06213 | 2.83205 | 34684 ft | 435 kts | 107° |
| 2026-05-07 12:25 | 51.05373 | 2.87827 | 34910 ft | 435 kts | 107° |
| 2026-05-07 12:25 | 51.04544 | 2.92390 | 35046 ft | 436 kts | 107° |
| 2026-05-07 12:26 | 51.02831 | 3.01754 | 35083 ft | 447 kts | 108° |
| 2026-05-07 12:26 | 51.01067 | 3.11337 | 35081 ft | 455 kts | 108° |
| 2026-05-07 12:27 | 50.99277 | 3.20997 | 35074 ft | 456 kts | 108° |
| 2026-05-07 12:27 | 50.97484 | 3.30657 | 35073 ft | 457 kts | 108° |
| 2026-05-07 12:28 | 50.95681 | 3.40323 | 35083 ft | 457 kts | 108° |
| 2026-05-07 12:28 | 50.93878 | 3.49919 | 35076 ft | 457 kts | 108° |
| 2026-05-07 12:29 | 50.92052 | 3.59573 | 35086 ft | 457 kts | 108° |
| 2026-05-07 12:29 | 50.90250 | 3.69245 | 35087 ft | 458 kts | 107° |
| 2026-05-07 12:30 | 50.88611 | 3.78995 | 35086 ft | 458 kts | 105° |
| 2026-05-07 12:30 | 50.87015 | 3.88765 | 35088 ft | 458 kts | 106° |
| 2026-05-07 12:31 | 50.85371 | 3.98511 | 35087 ft | 458 kts | 106° |
| 2026-05-07 12:31 | 50.83703 | 4.08169 | 35092 ft | 458 kts | 107° |
| 2026-05-07 12:32 | 50.82012 | 4.17886 | 35096 ft | 458 kts | 107° |
| 2026-05-07 12:32 | 50.80329 | 4.27611 | 35097 ft | 458 kts | 107° |
| 2026-05-07 12:33 | 50.77784 | 4.42175 | 35090 ft | 458 kts | 107° |
| 2026-05-07 12:33 | 50.76072 | 4.51876 | 35091 ft | 459 kts | 107° |
| 2026-05-07 12:34 | 50.74367 | 4.61513 | 35093 ft | 459 kts | 107° |
| 2026-05-07 12:34 | 50.72642 | 4.71212 | 35081 ft | 459 kts | 107° |
| 2026-05-07 12:35 | 50.70910 | 4.80904 | 35081 ft | 459 kts | 107° |
| 2026-05-07 12:35 | 50.69168 | 4.90585 | 35084 ft | 459 kts | 107° |
| 2026-05-07 12:36 | 50.67424 | 5.00194 | 35088 ft | 459 kts | 107° |
| 2026-05-07 12:36 | 50.65659 | 5.09867 | 35092 ft | 459 kts | 107° |
| 2026-05-07 12:37 | 50.63896 | 5.19527 | 35094 ft | 459 kts | 107° |
| 2026-05-07 12:37 | 50.62125 | 5.29191 | 35092 ft | 459 kts | 107° |
| 2026-05-07 12:38 | 50.60353 | 5.38777 | 35092 ft | 459 kts | 107° |
| 2026-05-07 12:38 | 50.58562 | 5.48416 | 35087 ft | 459 kts | 107° |
| 2026-05-07 12:39 | 50.56764 | 5.58052 | 35089 ft | 459 kts | 107° |
| 2026-05-07 12:39 | 50.54960 | 5.67677 | 35081 ft | 459 kts | 107° |
| 2026-05-07 12:40 | 50.53157 | 5.77229 | 35074 ft | 459 kts | 107° |
| 2026-05-07 12:40 | 50.51331 | 5.86843 | 35075 ft | 459 kts | 107° |
| 2026-05-07 12:41 | 50.49501 | 5.96444 | 35061 ft | 459 kts | 107° |
| 2026-05-07 12:41 | 50.47667 | 6.06035 | 35063 ft | 459 kts | 107° |
| 2026-05-07 12:42 | 50.45836 | 6.15556 | 35051 ft | 459 kts | 107° |
| 2026-05-07 12:42 | 50.43975 | 6.25132 | 35051 ft | 459 kts | 107° |
| 2026-05-07 12:43 | 50.42104 | 6.34702 | 35041 ft | 459 kts | 107° |
| 2026-05-07 12:43 | 50.40450 | 6.44366 | 35042 ft | 459 kts | 102° |
| 2026-05-07 12:44 | 50.39183 | 6.54178 | 35048 ft | 459 kts | 101° |
| 2026-05-07 12:44 | 50.37960 | 6.63933 | 35046 ft | 460 kts | 101° |
| 2026-05-07 12:45 | 50.36623 | 6.73722 | 35055 ft | 460 kts | 102° |
| 2026-05-07 12:45 | 50.35221 | 6.83496 | 35057 ft | 460 kts | 103° |
| 2026-05-07 12:46 | 50.33813 | 6.93270 | 35067 ft | 460 kts | 102° |
| 2026-05-07 12:46 | 50.32419 | 7.03052 | 35072 ft | 460 kts | 102° |
| 2026-05-07 12:47 | 50.31039 | 7.12753 | 35070 ft | 461 kts | 103° |
| 2026-05-07 12:47 | 50.29625 | 7.22538 | 35067 ft | 461 kts | 103° |
| 2026-05-07 12:48 | 50.28195 | 7.32314 | 35065 ft | 461 kts | 103° |
| 2026-05-07 12:48 | 50.26763 | 7.42081 | 35070 ft | 461 kts | 103° |
| 2026-05-07 12:49 | 50.25326 | 7.51845 | 35065 ft | 461 kts | 103° |
| 2026-05-07 12:49 | 50.23891 | 7.61537 | 35059 ft | 461 kts | 103° |
| 2026-05-07 12:50 | 50.22435 | 7.71305 | 35061 ft | 461 kts | 103° |
| 2026-05-07 12:50 | 50.20981 | 7.81050 | 35063 ft | 461 kts | 103° |
| 2026-05-07 12:51 | 50.19525 | 7.90800 | 35062 ft | 461 kts | 103° |
| 2026-05-07 12:51 | 50.18065 | 8.00476 | 35065 ft | 461 kts | 103° |
| 2026-05-07 12:52 | 50.16575 | 8.10209 | 35062 ft | 461 kts | 103° |
| 2026-05-07 12:52 | 50.15081 | 8.19933 | 35063 ft | 461 kts | 103° |
| 2026-05-07 12:53 | 50.13582 | 8.29667 | 35063 ft | 461 kts | 104° |
| 2026-05-07 12:53 | 50.12080 | 8.39382 | 35066 ft | 461 kts | 104° |
| 2026-05-07 12:54 | 50.10576 | 8.49019 | 35077 ft | 461 kts | 104° |
| 2026-05-07 12:54 | 50.09050 | 8.58716 | 35075 ft | 461 kts | 104° |
| 2026-05-07 12:55 | 50.07522 | 8.68406 | 35073 ft | 461 kts | 104° |
| 2026-05-07 12:55 | 50.05982 | 8.78089 | 35067 ft | 461 kts | 104° |
| 2026-05-07 12:56 | 50.03975 | 8.87538 | 35065 ft | 460 kts | 110° |
| 2026-05-07 12:56 | 50.01871 | 8.96876 | 35057 ft | 460 kts | 109° |
| 2026-05-07 12:57 | 49.99749 | 9.06270 | 35051 ft | 461 kts | 110° |
| 2026-05-07 12:57 | 49.97613 | 9.15656 | 35046 ft | 461 kts | 110° |
| 2026-05-07 12:58 | 49.95473 | 9.25038 | 35050 ft | 461 kts | 110° |
| 2026-05-07 12:58 | 49.93333 | 9.34346 | 35048 ft | 461 kts | 110° |
| 2026-05-07 12:59 | 49.91169 | 9.43709 | 35050 ft | 461 kts | 110° |
| 2026-05-07 12:59 | 49.89003 | 9.53064 | 35045 ft | 461 kts | 110° |
| 2026-05-07 13:00 | 49.86824 | 9.62415 | 35042 ft | 461 kts | 110° |
| 2026-05-07 13:00 | 49.84644 | 9.71768 | 35038 ft | 462 kts | 110° |
| 2026-05-07 13:01 | 49.82473 | 9.81043 | 35048 ft | 462 kts | 110° |
| 2026-05-07 13:01 | 49.80268 | 9.90394 | 35044 ft | 462 kts | 110° |
| 2026-05-07 13:02 | 49.78060 | 9.99733 | 35046 ft | 462 kts | 111° |
| 2026-05-07 13:02 | 49.75846 | 10.09057 | 35044 ft | 462 kts | 111° |
| 2026-05-07 13:03 | 49.73633 | 10.18320 | 35044 ft | 462 kts | 111° |
| 2026-05-07 13:03 | 49.71399 | 10.27640 | 35041 ft | 463 kts | 111° |
| 2026-05-07 13:04 | 49.69158 | 10.36962 | 35056 ft | 463 kts | 111° |
| 2026-05-07 13:04 | 49.66904 | 10.46270 | 35051 ft | 463 kts | 111° |
| 2026-05-07 13:05 | 49.64641 | 10.55577 | 35048 ft | 463 kts | 111° |
| 2026-05-07 13:05 | 49.62385 | 10.64821 | 35053 ft | 464 kts | 111° |
| 2026-05-07 13:06 | 49.60108 | 10.74129 | 35048 ft | 464 kts | 111° |
| 2026-05-07 13:06 | 49.57828 | 10.83434 | 35047 ft | 464 kts | 112° |
| 2026-05-07 13:07 | 49.55533 | 10.92712 | 35042 ft | 464 kts | 112° |
| 2026-05-07 13:07 | 49.53241 | 11.01929 | 35051 ft | 464 kts | 112° |
| 2026-05-07 13:08 | 49.50869 | 11.11163 | 35049 ft | 464 kts | 114° |
| 2026-05-07 13:08 | 49.48358 | 11.20295 | 35048 ft | 463 kts | 114° |
| 2026-05-07 13:09 | 49.45822 | 11.29402 | 35040 ft | 463 kts | 115° |
| 2026-05-07 13:09 | 49.43330 | 11.38471 | 35044 ft | 463 kts | 114° |
| 2026-05-07 13:10 | 49.40829 | 11.47591 | 35046 ft | 463 kts | 114° |
| 2026-05-07 13:10 | 49.38315 | 11.56698 | 35039 ft | 463 kts | 115° |
| 2026-05-07 13:11 | 49.35793 | 11.65806 | 35033 ft | 464 kts | 115° |
| 2026-05-07 13:11 | 49.33259 | 11.74896 | 35040 ft | 464 kts | 115° |
| 2026-05-07 13:12 | 49.30713 | 11.83982 | 35039 ft | 464 kts | 115° |
| 2026-05-07 13:12 | 49.28183 | 11.92999 | 35041 ft | 464 kts | 115° |
| 2026-05-07 13:13 | 49.25631 | 12.02068 | 35034 ft | 464 kts | 115° |
| 2026-05-07 13:13 | 49.23077 | 12.11121 | 35025 ft | 463 kts | 116° |
| 2026-05-07 13:14 | 49.20504 | 12.20170 | 35022 ft | 464 kts | 116° |
| 2026-05-07 13:14 | 49.17925 | 12.29217 | 35025 ft | 464 kts | 116° |
| 2026-05-07 13:15 | 49.15365 | 12.38202 | 35029 ft | 465 kts | 116° |
| 2026-05-07 13:15 | 49.12770 | 12.47243 | 35012 ft | 465 kts | 116° |
| 2026-05-07 13:16 | 49.10163 | 12.56275 | 35022 ft | 465 kts | 117° |
| 2026-05-07 13:16 | 49.07548 | 12.65306 | 35023 ft | 466 kts | 117° |
| 2026-05-07 13:17 | 49.04929 | 12.74343 | 35027 ft | 466 kts | 117° |
| 2026-05-07 13:17 | 49.02321 | 12.83306 | 35021 ft | 466 kts | 117° |
| 2026-05-07 13:18 | 48.99686 | 12.92319 | 35024 ft | 466 kts | 117° |
| 2026-05-07 13:18 | 48.97040 | 13.01332 | 35023 ft | 466 kts | 117° |
| 2026-05-07 13:19 | 48.94385 | 13.10340 | 35025 ft | 466 kts | 117° |
| 2026-05-07 13:19 | 48.91724 | 13.19329 | 35026 ft | 466 kts | 117° |
| 2026-05-07 13:20 | 48.89507 | 13.26800 | 35001 ft | 466 kts | 117° |
| 2026-05-07 13:20 | 48.86407 | 13.37231 | 35017 ft | 466 kts | 118° |
| 2026-05-07 13:21 | 48.83728 | 13.46195 | 35020 ft | 466 kts | 118° |
| 2026-05-07 13:21 | 48.81039 | 13.55139 | 35021 ft | 466 kts | 118° |
| 2026-05-07 13:22 | 48.78805 | 13.62567 | 35020 ft | 466 kts | 118° |
| 2026-05-07 13:22 | 48.76109 | 13.71490 | 35010 ft | 465 kts | 118° |
| 2026-05-07 13:23 | 48.73640 | 13.80581 | 35011 ft | 467 kts | 114° |
| 2026-05-07 13:23 | 48.71410 | 13.89758 | 35007 ft | 467 kts | 114° |
| 2026-05-07 13:24 | 48.69139 | 13.98969 | 35007 ft | 467 kts | 115° |
| 2026-05-07 13:24 | 48.66782 | 14.08115 | 34988 ft | 466 kts | 116° |
| 2026-05-07 13:25 | 48.64392 | 14.17219 | 35001 ft | 466 kts | 116° |
| 2026-05-07 13:25 | 48.62017 | 14.26328 | 35001 ft | 466 kts | 116° |
| 2026-05-07 13:26 | 48.59673 | 14.35374 | 35001 ft | 466 kts | 116° |
| 2026-05-07 13:26 | 48.57295 | 14.44471 | 34971 ft | 465 kts | 116° |
| 2026-05-07 13:27 | 48.54909 | 14.53549 | 34978 ft | 465 kts | 117° |
| 2026-05-07 13:27 | 48.52513 | 14.62600 | 34988 ft | 464 kts | 117° |
| 2026-05-07 13:28 | 48.50114 | 14.71633 | 34987 ft | 464 kts | 117° |
| 2026-05-07 13:28 | 48.47730 | 14.80598 | 34990 ft | 464 kts | 117° |
| 2026-05-07 13:29 | 48.45321 | 14.89605 | 34967 ft | 463 kts | 117° |
| 2026-05-07 13:29 | 48.42908 | 14.98608 | 34974 ft | 463 kts | 117° |
| 2026-05-07 13:30 | 48.40494 | 15.07589 | 34978 ft | 463 kts | 117° |
| 2026-05-07 13:30 | 48.38065 | 15.16566 | 34979 ft | 463 kts | 117° |
| 2026-05-07 13:31 | 48.35648 | 15.25472 | 34955 ft | 463 kts | 118° |
| 2026-05-07 13:31 | 48.33214 | 15.34424 | 34979 ft | 462 kts | 118° |
| 2026-05-07 13:32 | 48.30778 | 15.43357 | 34986 ft | 462 kts | 118° |
| 2026-05-07 13:32 | 48.28331 | 15.52280 | 34985 ft | 462 kts | 118° |
| 2026-05-07 13:33 | 48.25870 | 15.61180 | 34947 ft | 461 kts | 118° |
| 2026-05-07 13:33 | 48.23433 | 15.69996 | 34976 ft | 460 kts | 118° |
| 2026-05-07 13:34 | 48.19745 | 15.83261 | 34981 ft | 459 kts | 119° |
| 2026-05-07 13:35 | 48.17288 | 15.92096 | 34983 ft | 459 kts | 119° |
| 2026-05-07 13:35 | 48.14825 | 16.00909 | 34955 ft | 459 kts | 120° |
| 2026-05-07 13:36 | 48.12352 | 16.09693 | 34984 ft | 457 kts | 120° |
| 2026-05-07 13:36 | 48.09895 | 16.18397 | 34990 ft | 456 kts | 120° |
| 2026-05-07 13:37 | 48.07420 | 16.27133 | 34993 ft | 456 kts | 120° |
| 2026-05-07 13:37 | 48.04939 | 16.35861 | 34994 ft | 456 kts | 120° |
| 2026-05-07 13:38 | 48.02464 | 16.44556 | 34957 ft | 454 kts | 120° |
| 2026-05-07 13:38 | 47.99982 | 16.53240 | 34968 ft | 454 kts | 120° |
| 2026-05-07 13:39 | 47.97506 | 16.61855 | 34972 ft | 455 kts | 120° |
| 2026-05-07 13:39 | 47.95012 | 16.70522 | 34981 ft | 455 kts | 120° |
| 2026-05-07 13:40 | 47.92502 | 16.79184 | 34983 ft | 455 kts | 120° |
| 2026-05-07 13:40 | 47.89986 | 16.87832 | 34985 ft | 455 kts | 120° |
| 2026-05-07 13:41 | 47.87469 | 16.96479 | 34985 ft | 455 kts | 120° |
| 2026-05-07 13:41 | 47.84963 | 17.05047 | 34985 ft | 454 kts | 120° |
| 2026-05-07 13:42 | 47.82374 | 17.13610 | 34940 ft | 452 kts | 123° |
| 2026-05-07 13:42 | 47.79457 | 17.21835 | 34957 ft | 448 kts | 127° |
| 2026-05-07 13:43 | 47.76388 | 17.29895 | 34977 ft | 448 kts | 127° |
| 2026-05-07 13:43 | 47.73341 | 17.37979 | 34975 ft | 449 kts | 126° |
| 2026-05-07 13:44 | 47.70338 | 17.46121 | 34983 ft | 450 kts | 126° |
| 2026-05-07 13:44 | 47.67337 | 17.54286 | 34972 ft | 451 kts | 126° |
| 2026-05-07 13:45 | 47.64345 | 17.62380 | 34982 ft | 450 kts | 126° |
| 2026-05-07 13:45 | 47.61315 | 17.70502 | 34995 ft | 451 kts | 126° |
| 2026-05-07 13:46 | 47.58284 | 17.78623 | 34996 ft | 450 kts | 126° |
| 2026-05-07 13:46 | 47.55250 | 17.86733 | 34959 ft | 450 kts | 126° |
| 2026-05-07 13:47 | 47.52228 | 17.94784 | 34968 ft | 451 kts | 126° |
| 2026-05-07 13:47 | 47.49171 | 18.02896 | 34985 ft | 452 kts | 126° |
| 2026-05-07 13:48 | 47.46104 | 18.11008 | 34991 ft | 453 kts | 126° |
| 2026-05-07 13:48 | 47.43035 | 18.19124 | 34957 ft | 452 kts | 126° |
| 2026-05-07 13:49 | 47.39959 | 18.27217 | 34977 ft | 452 kts | 126° |
| 2026-05-07 13:49 | 47.36890 | 18.35243 | 34993 ft | 452 kts | 126° |
| 2026-05-07 13:50 | 47.33802 | 18.43328 | 35007 ft | 453 kts | 126° |
| 2026-05-07 13:50 | 47.30708 | 18.51402 | 35011 ft | 452 kts | 126° |
| 2026-05-07 13:51 | 47.27600 | 18.59467 | 34986 ft | 453 kts | 126° |
| 2026-05-07 13:51 | 47.24484 | 18.67524 | 34987 ft | 453 kts | 126° |
| 2026-05-07 13:52 | 47.21385 | 18.75536 | 34989 ft | 454 kts | 126° |
| 2026-05-07 13:52 | 47.18256 | 18.83596 | 34993 ft | 454 kts | 126° |
| 2026-05-07 13:53 | 47.15125 | 18.91651 | 34975 ft | 454 kts | 126° |
| 2026-05-07 13:53 | 47.11976 | 18.99705 | 34992 ft | 455 kts | 126° |
| 2026-05-07 13:54 | 47.08824 | 19.07749 | 35001 ft | 455 kts | 126° |
| 2026-05-07 13:54 | 47.05688 | 19.15742 | 35009 ft | 455 kts | 126° |
| 2026-05-07 13:55 | 47.02528 | 19.23768 | 34971 ft | 454 kts | 126° |
| 2026-05-07 13:55 | 46.99360 | 19.31776 | 34979 ft | 454 kts | 126° |
| 2026-05-07 13:56 | 46.96190 | 19.39778 | 34987 ft | 454 kts | 126° |
| 2026-05-07 13:56 | 46.93010 | 19.47770 | 34991 ft | 454 kts | 126° |
| 2026-05-07 13:57 | 46.89851 | 19.55702 | 34993 ft | 454 kts | 126° |
| 2026-05-07 13:57 | 46.86664 | 19.63681 | 34980 ft | 455 kts | 126° |
| 2026-05-07 13:58 | 46.83463 | 19.71656 | 35013 ft | 455 kts | 126° |
| 2026-05-07 13:58 | 46.80253 | 19.79621 | 35017 ft | 455 kts | 126° |
| 2026-05-07 13:59 | 46.77041 | 19.87586 | 35015 ft | 455 kts | 126° |
| 2026-05-07 13:59 | 46.73848 | 19.95489 | 35008 ft | 455 kts | 126° |
| 2026-05-07 14:00 | 46.70630 | 20.03434 | 35022 ft | 455 kts | 126° |
| 2026-05-07 14:00 | 46.67404 | 20.11346 | 35020 ft | 454 kts | 126° |
| 2026-05-07 14:01 | 46.64174 | 20.19251 | 35044 ft | 454 kts | 126° |
| 2026-05-07 14:01 | 46.60940 | 20.27154 | 35037 ft | 454 kts | 126° |
| 2026-05-07 14:02 | 46.57720 | 20.34992 | 35035 ft | 455 kts | 126° |
| 2026-05-07 14:02 | 46.54474 | 20.42881 | 35037 ft | 455 kts | 126° |
| 2026-05-07 14:03 | 46.51218 | 20.50771 | 35036 ft | 455 kts | 126° |
| 2026-05-07 14:03 | 46.47961 | 20.58658 | 35021 ft | 455 kts | 126° |
| 2026-05-07 14:04 | 46.44726 | 20.66460 | 35036 ft | 454 kts | 127° |
| 2026-05-07 14:04 | 46.41468 | 20.74284 | 35040 ft | 453 kts | 127° |
| 2026-05-07 14:05 | 46.38203 | 20.82091 | 35042 ft | 452 kts | 127° |
| 2026-05-07 14:05 | 46.34939 | 20.89871 | 35019 ft | 452 kts | 126° |
| 2026-05-07 14:06 | 46.31680 | 20.97646 | 35040 ft | 452 kts | 126° |
| 2026-05-07 14:06 | 46.28436 | 21.05360 | 35050 ft | 452 kts | 126° |
| 2026-05-07 14:07 | 46.25119 | 21.13061 | 35056 ft | 450 kts | 129° |
| 2026-05-07 14:07 | 46.21536 | 21.20446 | 35047 ft | 448 kts | 131° |
| 2026-05-07 14:08 | 46.17843 | 21.27703 | 35034 ft | 449 kts | 131° |
| 2026-05-07 14:08 | 46.14169 | 21.35022 | 35037 ft | 451 kts | 130° |
| 2026-05-07 14:09 | 46.10540 | 21.42344 | 35037 ft | 452 kts | 130° |
| 2026-05-07 14:09 | 46.06892 | 21.49732 | 35040 ft | 453 kts | 130° |
| 2026-05-07 14:10 | 46.03231 | 21.57112 | 35005 ft | 453 kts | 130° |
| 2026-05-07 14:10 | 45.99550 | 21.64484 | 35007 ft | 454 kts | 130° |
| 2026-05-07 14:11 | 45.95860 | 21.71857 | 35009 ft | 454 kts | 130° |
| 2026-05-07 14:11 | 45.92189 | 21.79174 | 35018 ft | 455 kts | 130° |
| 2026-05-07 14:12 | 45.88486 | 21.86539 | 35011 ft | 455 kts | 130° |
| 2026-05-07 14:12 | 45.84778 | 21.93887 | 35028 ft | 454 kts | 130° |
| 2026-05-07 14:13 | 45.81070 | 22.01224 | 35033 ft | 454 kts | 130° |
| 2026-05-07 14:13 | 45.77426 | 22.08635 | 35035 ft | 455 kts | 129° |
| 2026-05-07 14:14 | 45.73889 | 22.16154 | 35022 ft | 455 kts | 129° |
| 2026-05-07 14:14 | 45.70362 | 22.23685 | 35038 ft | 455 kts | 129° |
| 2026-05-07 14:15 | 45.66828 | 22.31133 | 35040 ft | 455 kts | 129° |
| 2026-05-07 14:15 | 45.63260 | 22.38592 | 35042 ft | 455 kts | 129° |
| 2026-05-07 14:16 | 45.59681 | 22.46045 | 35033 ft | 455 kts | 130° |
| 2026-05-07 14:16 | 45.56092 | 22.53504 | 35035 ft | 456 kts | 130° |
| 2026-05-07 14:17 | 45.52521 | 22.60918 | 35049 ft | 457 kts | 130° |
| 2026-05-07 14:17 | 45.48925 | 22.68378 | 35058 ft | 456 kts | 129° |
| 2026-05-07 14:18 | 45.45329 | 22.75823 | 35054 ft | 456 kts | 129° |
| 2026-05-07 14:18 | 45.41723 | 22.83229 | 35055 ft | 455 kts | 130° |
| 2026-05-07 14:19 | 45.38119 | 22.90638 | 35056 ft | 455 kts | 129° |
| 2026-05-07 14:19 | 45.34514 | 22.98044 | 35067 ft | 455 kts | 130° |
| 2026-05-07 14:20 | 45.30923 | 23.05387 | 35053 ft | 456 kts | 130° |
| 2026-05-07 14:20 | 45.27298 | 23.12778 | 35053 ft | 456 kts | 130° |
| 2026-05-07 14:21 | 45.23660 | 23.20165 | 35057 ft | 456 kts | 130° |
| 2026-05-07 14:21 | 45.20022 | 23.27539 | 35063 ft | 456 kts | 130° |
| 2026-05-07 14:22 | 45.16383 | 23.34907 | 35060 ft | 456 kts | 130° |
| 2026-05-07 14:22 | 45.12763 | 23.42223 | 35051 ft | 456 kts | 129° |
| 2026-05-07 14:23 | 45.09112 | 23.49567 | 35060 ft | 456 kts | 129° |
| 2026-05-07 14:23 | 45.05460 | 23.56897 | 35064 ft | 456 kts | 129° |
| 2026-05-07 14:24 | 45.01805 | 23.64226 | 35042 ft | 456 kts | 129° |
| 2026-05-07 14:24 | 44.98161 | 23.71510 | 35040 ft | 457 kts | 129° |
| 2026-05-07 14:25 | 44.94479 | 23.78843 | 35040 ft | 458 kts | 129° |
| 2026-05-07 14:25 | 44.90791 | 23.86170 | 35041 ft | 458 kts | 129° |
| 2026-05-07 14:26 | 44.87094 | 23.93502 | 35026 ft | 459 kts | 129° |
| 2026-05-07 14:26 | 44.83380 | 24.00850 | 35021 ft | 462 kts | 129° |
| 2026-05-07 14:27 | 44.79643 | 24.08222 | 35026 ft | 463 kts | 129° |
| 2026-05-07 14:27 | 44.75915 | 24.15552 | 35028 ft | 464 kts | 129° |
| 2026-05-07 14:28 | 44.72159 | 24.22924 | 35047 ft | 463 kts | 129° |
| 2026-05-07 14:28 | 44.68396 | 24.30280 | 35046 ft | 463 kts | 129° |
| 2026-05-07 14:29 | 44.64637 | 24.37612 | 35047 ft | 463 kts | 129° |
| 2026-05-07 14:29 | 44.60900 | 24.44890 | 35050 ft | 462 kts | 129° |
| 2026-05-07 14:30 | 44.57136 | 24.52207 | 35027 ft | 463 kts | 129° |
| 2026-05-07 14:30 | 44.53365 | 24.59521 | 35025 ft | 463 kts | 129° |
| 2026-05-07 14:31 | 44.49575 | 24.66833 | 35027 ft | 464 kts | 129° |
| 2026-05-07 14:31 | 44.45777 | 24.74140 | 35033 ft | 464 kts | 129° |
| 2026-05-07 14:32 | 44.41975 | 24.81457 | 35014 ft | 465 kts | 129° |
| 2026-05-07 14:32 | 44.38191 | 24.88742 | 35005 ft | 467 kts | 129° |
| 2026-05-07 14:33 | 44.34357 | 24.96067 | 35014 ft | 467 kts | 130° |
| 2026-05-07 14:33 | 44.30507 | 25.03386 | 35020 ft | 468 kts | 130° |
| 2026-05-07 14:34 | 44.26658 | 25.10714 | 35015 ft | 469 kts | 129° |
| 2026-05-07 14:34 | 44.22799 | 25.18051 | 35020 ft | 469 kts | 129° |
| 2026-05-07 14:35 | 44.18928 | 25.25383 | 35026 ft | 470 kts | 130° |
| 2026-05-07 14:35 | 44.15074 | 25.32654 | 35016 ft | 470 kts | 129° |
| 2026-05-07 14:36 | 44.11187 | 25.39983 | 35012 ft | 471 kts | 129° |
| 2026-05-07 14:36 | 44.07298 | 25.47326 | 35008 ft | 472 kts | 129° |
| 2026-05-07 14:37 | 44.03392 | 25.54655 | 35009 ft | 472 kts | 129° |
| 2026-05-07 14:37 | 43.97506 | 25.65636 | 35013 ft | 472 kts | 129° |
| 2026-05-07 14:38 | 43.93581 | 25.72940 | 35030 ft | 472 kts | 129° |
| 2026-05-07 14:38 | 43.89677 | 25.80181 | 35033 ft | 472 kts | 129° |
| 2026-05-07 14:39 | 43.85748 | 25.87472 | 35028 ft | 472 kts | 129° |
| 2026-05-07 14:39 | 43.81815 | 25.94757 | 35011 ft | 472 kts | 129° |
| 2026-05-07 14:40 | 43.77868 | 26.02034 | 35026 ft | 473 kts | 129° |
| 2026-05-07 14:40 | 43.73916 | 26.09317 | 35036 ft | 473 kts | 129° |
| 2026-05-07 14:41 | 43.69952 | 26.16587 | 35035 ft | 473 kts | 129° |
| 2026-05-07 14:41 | 43.65980 | 26.23842 | 35030 ft | 474 kts | 129° |
| 2026-05-07 14:42 | 43.62036 | 26.31047 | 35038 ft | 474 kts | 129° |
| 2026-05-07 14:42 | 43.58034 | 26.38341 | 35042 ft | 474 kts | 129° |
| 2026-05-07 14:43 | 43.54077 | 26.45540 | 35019 ft | 475 kts | 129° |
| 2026-05-07 14:43 | 43.50077 | 26.52788 | 35022 ft | 476 kts | 129° |
| 2026-05-07 14:44 | 43.46064 | 26.60043 | 35031 ft | 476 kts | 129° |
| 2026-05-07 14:44 | 43.42050 | 26.67292 | 35030 ft | 477 kts | 129° |
| 2026-05-07 14:45 | 43.38021 | 26.74548 | 35034 ft | 478 kts | 129° |
| 2026-05-07 14:45 | 43.33983 | 26.81805 | 35045 ft | 478 kts | 129° |
| 2026-05-07 14:46 | 43.29956 | 26.89005 | 35061 ft | 479 kts | 129° |
| 2026-05-07 14:46 | 43.25895 | 26.96246 | 35052 ft | 479 kts | 129° |
| 2026-05-07 14:47 | 43.21830 | 27.03488 | 35064 ft | 479 kts | 129° |
| 2026-05-07 14:47 | 43.17766 | 27.10725 | 35078 ft | 479 kts | 129° |
| 2026-05-07 14:48 | 43.13697 | 27.17948 | 35075 ft | 479 kts | 129° |
| 2026-05-07 14:48 | 43.09615 | 27.25157 | 35076 ft | 480 kts | 129° |
| 2026-05-07 14:49 | 43.05551 | 27.32328 | 35086 ft | 480 kts | 129° |
| 2026-05-07 14:49 | 43.01450 | 27.39544 | 35091 ft | 481 kts | 129° |
| 2026-05-07 14:50 | 42.97276 | 27.46674 | 35088 ft | 481 kts | 131° |
| 2026-05-07 14:50 | 42.92792 | 27.53444 | 35095 ft | 481 kts | 134° |
| 2026-05-07 14:51 | 42.88174 | 27.60063 | 35113 ft | 482 kts | 135° |
| 2026-05-07 14:51 | 42.83598 | 27.66732 | 35116 ft | 481 kts | 134° |
| 2026-05-07 14:52 | 42.79077 | 27.73463 | 35118 ft | 482 kts | 133° |
| 2026-05-07 14:52 | 42.74596 | 27.80155 | 35132 ft | 482 kts | 133° |
| 2026-05-07 14:53 | 42.70062 | 27.86865 | 35120 ft | 482 kts | 134° |
| 2026-05-07 14:53 | 42.65502 | 27.93564 | 35120 ft | 483 kts | 133° |
| 2026-05-07 14:54 | 42.60937 | 28.00267 | 35117 ft | 484 kts | 133° |
| 2026-05-07 14:54 | 42.56355 | 28.06970 | 35122 ft | 484 kts | 134° |
| 2026-05-07 14:55 | 42.51776 | 28.13664 | 35133 ft | 484 kts | 133° |
| 2026-05-07 14:55 | 42.47253 | 28.20275 | 35129 ft | 476 kts | 133° |
| 2026-05-07 14:56 | 42.42760 | 28.26821 | 35114 ft | 473 kts | 133° |
| 2026-05-07 14:56 | 42.38277 | 28.33336 | 35133 ft | 473 kts | 133° |
| 2026-05-07 14:57 | 42.33774 | 28.39863 | 35120 ft | 476 kts | 133° |
| 2026-05-07 14:57 | 42.29250 | 28.46399 | 35121 ft | 476 kts | 133° |
| 2026-05-07 14:58 | 42.25490 | 28.51822 | 35124 ft | 476 kts | 134° |
| 2026-05-07 14:58 | 42.20965 | 28.58335 | 35134 ft | 475 kts | 134° |
| 2026-05-07 14:59 | 42.15703 | 28.65887 | 35134 ft | 475 kts | 134° |
| 2026-05-07 14:59 | 42.11888 | 28.71286 | 35133 ft | 474 kts | 139° |
| 2026-05-07 15:00 | 42.09303 | 28.73913 | 35132 ft | 471 kts | 152° |
| 2026-05-07 15:00 | 42.06356 | 28.75762 | 35130 ft | 466 kts | 165° |
| 2026-05-07 15:00 | 42.03222 | 28.76761 | 34903 ft | 461 kts | 176° |
| 2026-05-07 15:00 | 42.00007 | 28.77063 | 33490 ft | 469 kts | 182° |
| 2026-05-07 15:01 | 41.96706 | 28.77198 | 31897 ft | 479 kts | 182° |
| 2026-05-07 15:01 | 41.93386 | 28.77288 | 30930 ft | 474 kts | 182° |
| 2026-05-07 15:01 | 41.90107 | 28.77373 | 29980 ft | 469 kts | 182° |
| 2026-05-07 15:01 | 41.86867 | 28.77468 | 28943 ft | 463 kts | 182° |
| 2026-05-07 15:02 | 41.83673 | 28.77576 | 27993 ft | 456 kts | 181° |
| 2026-05-07 15:02 | 41.80568 | 28.77631 | 27677 ft | 432 kts | 188° |
| 2026-05-07 15:02 | 41.77728 | 28.76882 | 27374 ft | 405 kts | 205° |
| 2026-05-07 15:02 | 41.75301 | 28.75180 | 26799 ft | 386 kts | 223° |
| 2026-05-07 15:03 | 41.73430 | 28.72730 | 26113 ft | 371 kts | 238° |
| 2026-05-07 15:03 | 41.71938 | 28.69946 | 25367 ft | 367 kts | 239° |
| 2026-05-07 15:03 | 41.70448 | 28.67180 | 24647 ft | 365 kts | 239° |
| 2026-05-07 15:03 | 41.68957 | 28.64443 | 23950 ft | 363 kts | 238° |
| 2026-05-07 15:04 | 41.67471 | 28.61729 | 23183 ft | 360 kts | 238° |
| 2026-05-07 15:04 | 41.65996 | 28.59038 | 22414 ft | 357 kts | 238° |
| 2026-05-07 15:04 | 41.64558 | 28.56421 | 21734 ft | 352 kts | 237° |
| 2026-05-07 15:04 | 41.63117 | 28.53801 | 21048 ft | 347 kts | 237° |
| 2026-05-07 15:05 | 41.61694 | 28.51213 | 20372 ft | 343 kts | 237° |
| 2026-05-07 15:05 | 41.60290 | 28.48651 | 19708 ft | 340 kts | 237° |
| 2026-05-07 15:05 | 41.58904 | 28.46119 | 19066 ft | 336 kts | 236° |
| 2026-05-07 15:05 | 41.57530 | 28.43613 | 18447 ft | 333 kts | 236° |
| 2026-05-07 15:06 | 41.56168 | 28.41135 | 17739 ft | 329 kts | 235° |
| 2026-05-07 15:06 | 41.54580 | 28.38956 | 17065 ft | 328 kts | 218° |
| 2026-05-07 15:06 | 41.52578 | 28.37521 | 16415 ft | 327 kts | 200° |
| 2026-05-07 15:06 | 41.50350 | 28.36974 | 15784 ft | 327 kts | 182° |
| 2026-05-07 15:07 | 41.48086 | 28.37042 | 15143 ft | 324 kts | 180° |
| 2026-05-07 15:07 | 41.45839 | 28.37123 | 14546 ft | 321 kts | 180° |
| 2026-05-07 15:07 | 41.43617 | 28.37196 | 13977 ft | 318 kts | 180° |
| 2026-05-07 15:07 | 41.41422 | 28.37264 | 13346 ft | 314 kts | 180° |
| 2026-05-07 15:08 | 41.39245 | 28.37330 | 12721 ft | 311 kts | 180° |
| 2026-05-07 15:08 | 41.37120 | 28.37399 | 12122 ft | 308 kts | 180° |
| 2026-05-07 15:08 | 41.34984 | 28.37470 | 11503 ft | 306 kts | 180° |
| 2026-05-07 15:08 | 41.32862 | 28.37540 | 10885 ft | 304 kts | 180° |
| 2026-05-07 15:09 | 41.30754 | 28.37609 | 10300 ft | 302 kts | 180° |
| 2026-05-07 15:09 | 41.28664 | 28.37678 | 9765 ft | 298 kts | 181° |
| 2026-05-07 15:09 | 41.26603 | 28.37749 | 9343 ft | 296 kts | 181° |
| 2026-05-07 15:09 | 41.24543 | 28.37815 | 8979 ft | 296 kts | 181° |
| 2026-05-07 15:10 | 41.22492 | 28.37877 | 8623 ft | 293 kts | 181° |
| 2026-05-07 15:10 | 41.20471 | 28.37937 | 8280 ft | 289 kts | 181° |
| 2026-05-07 15:10 | 41.18471 | 28.38000 | 7933 ft | 286 kts | 181° |
| 2026-05-07 15:10 | 41.16482 | 28.38064 | 7593 ft | 286 kts | 181° |
| 2026-05-07 15:11 | 41.14491 | 28.38127 | 7253 ft | 286 kts | 181° |
| 2026-05-07 15:11 | 41.12504 | 28.38190 | 6910 ft | 286 kts | 181° |
| 2026-05-07 15:11 | 41.10529 | 28.38252 | 6570 ft | 282 kts | 181° |
| 2026-05-07 15:11 | 41.08583 | 28.38315 | 6223 ft | 278 kts | 181° |
| 2026-05-07 15:12 | 41.06682 | 28.38380 | 5889 ft | 276 kts | 181° |
| 2026-05-07 15:12 | 41.04764 | 28.38445 | 5560 ft | 275 kts | 181° |
| 2026-05-07 15:12 | 41.02856 | 28.38506 | 5269 ft | 273 kts | 181° |
| 2026-05-07 15:12 | 41.00987 | 28.38568 | 5155 ft | 264 kts | 181° |
| 2026-05-07 15:13 | 40.99186 | 28.38795 | 5039 ft | 258 kts | 167° |
| 2026-05-07 15:13 | 40.97591 | 28.39777 | 5002 ft | 250 kts | 145° |
| 2026-05-07 15:13 | 40.96383 | 28.41422 | 4997 ft | 251 kts | 123° |
| 2026-05-07 15:13 | 40.95510 | 28.43429 | 5000 ft | 252 kts | 120° |
| 2026-05-07 15:14 | 40.94647 | 28.45451 | 5003 ft | 252 kts | 120° |
| 2026-05-07 15:14 | 40.93782 | 28.47469 | 5001 ft | 252 kts | 121° |
| 2026-05-07 15:14 | 40.92915 | 28.49479 | 4998 ft | 252 kts | 121° |
| 2026-05-07 15:14 | 40.92046 | 28.51487 | 4998 ft | 252 kts | 121° |
| 2026-05-07 15:15 | 40.91188 | 28.53472 | 5006 ft | 252 kts | 121° |
| 2026-05-07 15:15 | 40.90316 | 28.55484 | 5001 ft | 252 kts | 121° |
| 2026-05-07 15:15 | 40.89649 | 28.57617 | 5005 ft | 253 kts | 102° |
| 2026-05-07 15:15 | 40.89552 | 28.59929 | 5008 ft | 253 kts | 82° |
| 2026-05-07 15:16 | 40.90005 | 28.62160 | 5007 ft | 252 kts | 69° |
| 2026-05-07 15:16 | 40.90583 | 28.64347 | 5004 ft | 252 kts | 69° |
| 2026-05-07 15:16 | 40.91155 | 28.66534 | 5012 ft | 251 kts | 67° |
| 2026-05-07 15:16 | 40.91996 | 28.68535 | 5008 ft | 249 kts | 49° |
| 2026-05-07 15:17 | 40.93246 | 28.70078 | 5013 ft | 245 kts | 30° |
| 2026-05-07 15:17 | 40.94721 | 28.71185 | 5010 ft | 244 kts | 25° |
| 2026-05-07 15:17 | 40.96208 | 28.72272 | 5009 ft | 244 kts | 26° |
| 2026-05-07 15:17 | 40.97761 | 28.73122 | 5012 ft | 240 kts | 9° |
| 2026-05-07 15:18 | 40.99410 | 28.73299 | 5011 ft | 237 kts | 355° |